createdAt,value
2022-09-09T00:05:00.618Z,23.15
2022-09-09T00:10:01.564Z,23.47
2022-09-09T00:15:02.214Z,23.18
2022-09-09T00:20:02.763Z,23.09
2022-09-09T00:25:03.609Z,22.84
2022-09-09T00:30:13.521Z,22.92
2022-09-09T00:35:16.381Z,22.98
2022-09-09T00:40:19.405Z,23.09
2022-09-09T00:45:25.699Z,23.25
2022-09-09T00:50:36.403Z,23.47
2022-09-09T00:55:39.324Z,23.56
2022-09-09T01:00:41.382Z,23.74
2022-09-09T01:05:42.851Z,23.60
2022-09-09T01:10:46.716Z,23.61
2022-09-09T01:15:46.958Z,23.59
2022-09-09T01:20:48.012Z,23.43
2022-09-09T01:26:02.745Z,23.52
2022-09-09T01:31:01.442Z,23.56
2022-09-09T01:36:06.807Z,23.07
2022-09-09T01:41:09.447Z,23.22
2022-09-09T01:46:26.379Z,23.23
2022-09-09T01:51:23.929Z,23.45
2022-09-09T01:56:27.068Z,23.56
2022-09-09T02:01:30.036Z,23.88
2022-09-09T02:06:31.604Z,24.14
2022-09-09T02:11:37.645Z,23.84
2022-09-09T02:16:57.556Z,23.80
2022-09-09T02:22:02.177Z,23.51
2022-09-09T02:27:01.027Z,23.51
2022-09-09T02:31:59.561Z,23.75
2022-09-09T02:37:03.050Z,23.83
2022-09-09T02:42:00.166Z,24.03
2022-09-09T02:47:11.090Z,23.84
2022-09-09T02:52:09.787Z,23.75
2022-09-09T02:57:11.542Z,23.64
2022-09-09T03:02:11.976Z,24.01
2022-09-09T03:07:09.956Z,23.93
2022-09-09T03:12:07.574Z,24.26
2022-09-09T03:17:05.619Z,24.42
2022-09-09T03:22:07.448Z,23.87
2022-09-09T03:27:07.582Z,23.68
2022-09-09T03:32:06.998Z,23.57
2022-09-09T03:37:03.886Z,23.93
2022-09-09T03:42:19.790Z,24.19
2022-09-09T03:47:20.130Z,24.26
2022-09-09T03:52:19.397Z,24.10
2022-09-09T03:57:22.733Z,24.21
2022-09-09T04:02:21.889Z,23.86
2022-09-09T04:07:18.610Z,24.07
2022-09-09T04:12:17.052Z,24.46
2022-09-09T04:17:17.745Z,24.51
2022-09-09T04:22:14.613Z,24.70
2022-09-09T04:27:11.293Z,24.71
2022-09-09T04:32:08.101Z,24.46
2022-09-09T04:37:05.732Z,24.62
2022-09-09T04:42:02.566Z,24.82
2022-09-09T04:46:59.407Z,24.84
2022-09-09T04:51:56.705Z,24.87
2022-09-09T04:56:55.353Z,24.95
2022-09-09T05:01:52.205Z,24.92
2022-09-09T05:06:49.234Z,25.13
2022-09-09T05:11:46.930Z,24.80
2022-09-09T05:17:16.804Z,24.44
2022-09-09T05:22:14.597Z,24.16
2022-09-09T05:27:15.586Z,24.42
2022-09-09T05:32:15.587Z,24.82
2022-09-09T05:37:15.002Z,24.92
2022-09-09T05:42:15.536Z,24.85
2022-09-09T05:47:12.346Z,24.85
2022-09-09T05:52:10.292Z,25.08
2022-09-09T05:57:07.961Z,25.21
2022-09-09T06:02:05.135Z,25.24
2022-09-09T06:07:06.606Z,25.18
2022-09-09T06:12:03.793Z,25.57
2022-09-09T06:17:08.429Z,25.52
2022-09-09T06:22:06.637Z,25.63
2022-09-09T06:27:07.141Z,25.40
2022-09-09T06:32:08.990Z,25.47
2022-09-09T06:37:07.109Z,25.70
2022-09-09T06:42:09.974Z,25.74
2022-09-09T06:47:25.870Z,26.03
2022-09-09T06:52:26.738Z,25.99
2022-09-09T06:57:41.080Z,26.24
2022-09-09T07:02:48.764Z,26.20
2022-09-09T07:07:46.996Z,26.31
2022-09-09T07:12:52.208Z,26.40
2022-09-09T07:17:50.704Z,26.62
2022-09-09T07:22:48.426Z,26.78
2022-09-09T07:27:45.364Z,26.90
2022-09-09T07:32:43.186Z,27.06
2022-09-09T07:37:41.705Z,27.12
2022-09-09T07:42:38.940Z,27.26
2022-09-09T07:47:36.126Z,27.39
2022-09-09T07:52:35.970Z,27.43
2022-09-09T07:57:36.575Z,27.58
2022-09-09T08:02:34.683Z,27.79
2022-09-09T08:07:32.046Z,27.97
2022-09-09T08:12:31.159Z,27.91
2022-09-09T08:17:30.566Z,27.97
2022-09-09T08:22:30.724Z,28.07
2022-09-09T08:27:27.565Z,28.13
2022-09-09T08:32:26.888Z,28.13
2022-09-09T08:37:24.990Z,28.25
2022-09-09T08:42:30.468Z,28.39
2022-09-09T08:47:35.633Z,28.50
2022-09-09T08:52:40.478Z,28.60
2022-09-09T08:57:37.736Z,28.69
2022-09-09T09:02:40.539Z,28.81
2022-09-09T09:07:51.738Z,28.87
2022-09-09T09:12:54.137Z,28.95
2022-09-09T09:17:53.191Z,29.03
2022-09-09T09:22:56.602Z,29.10
2022-09-09T09:27:59.321Z,28.98
2022-09-09T09:33:00.000Z,29.20
2022-09-09T09:43:20.707Z,29.31
2022-09-09T09:48:18.901Z,29.41
2022-09-09T09:53:22.239Z,29.43
2022-09-09T09:58:20.895Z,29.58
2022-09-09T10:03:23.585Z,29.70
2022-09-09T10:08:23.132Z,29.86
2022-09-09T10:13:22.117Z,29.92
2022-09-09T10:18:39.874Z,29.96
2022-09-09T10:23:47.376Z,29.98
2022-09-09T10:29:00.234Z,29.97
2022-09-09T10:34:01.498Z,29.94
2022-09-09T10:39:00.732Z,29.91
2022-09-09T10:44:05.546Z,29.97
2022-09-09T10:49:08.241Z,29.97
2022-09-09T10:54:15.765Z,30.05
2022-09-09T10:59:14.675Z,30.13
2022-09-09T11:04:16.963Z,30.17
2022-09-09T11:09:17.505Z,30.23
2022-09-09T11:14:20.989Z,30.26
2022-09-09T11:19:22.355Z,30.35
2022-09-09T11:24:25.568Z,30.44
2022-09-09T11:29:31.607Z,30.58
2022-09-09T11:39:48.543Z,30.50
2022-09-09T11:44:45.587Z,30.49
2022-09-09T11:49:43.209Z,30.45
2022-09-09T11:54:47.754Z,30.46
2022-09-09T11:59:52.522Z,30.42
2022-09-09T12:04:55.186Z,30.44
2022-09-09T12:09:56.984Z,30.52
2022-09-09T12:15:18.296Z,30.64
2022-09-09T12:20:16.512Z,30.73
2022-09-09T12:25:23.176Z,30.75
2022-09-09T12:30:22.064Z,30.68
2022-09-09T12:35:23.428Z,30.63
2022-09-09T12:40:22.738Z,30.53
2022-09-09T12:45:20.833Z,30.45
2022-09-09T12:50:21.967Z,30.46
2022-09-09T12:55:20.085Z,30.69
2022-09-09T13:00:19.512Z,30.85
2022-09-09T13:05:17.848Z,30.56
2022-09-09T13:10:21.466Z,30.42
2022-09-09T13:15:29.156Z,30.68
2022-09-09T13:20:26.036Z,30.95
2022-09-09T13:25:26.118Z,30.96
2022-09-09T13:30:24.211Z,30.81
2022-09-09T13:35:24.767Z,31.10
2022-09-09T13:40:24.121Z,31.05
2022-09-09T13:45:21.808Z,30.87
2022-09-09T13:50:21.755Z,30.91
2022-09-09T13:55:19.491Z,30.66
2022-09-09T14:00:16.620Z,30.78
2022-09-09T14:05:13.395Z,30.80
2022-09-09T14:10:10.071Z,30.86
2022-09-09T14:15:08.905Z,30.90
2022-09-09T14:20:09.655Z,30.90
2022-09-09T14:25:06.916Z,30.82
2022-09-09T14:30:05.020Z,30.87
2022-09-09T14:35:02.607Z,30.82
2022-09-09T14:40:00.237Z,30.86
2022-09-09T14:44:57.199Z,30.86
2022-09-09T14:49:53.894Z,30.84
2022-09-09T14:54:51.637Z,30.81
2022-09-09T14:59:50.815Z,30.77
2022-09-09T15:04:50.267Z,30.71
2022-09-09T15:09:49.134Z,30.70
2022-09-09T15:14:46.624Z,30.68
2022-09-09T15:19:43.403Z,30.65
2022-09-09T15:24:42.545Z,30.63
2022-09-09T15:29:39.345Z,30.49
2022-09-09T15:34:36.809Z,30.48
2022-09-09T15:39:38.165Z,30.38
2022-09-09T15:44:42.880Z,30.35
2022-09-09T15:49:41.213Z,30.32
2022-09-09T15:54:39.249Z,30.20
2022-09-09T15:59:36.028Z,29.90
2022-09-09T16:04:34.429Z,29.57
2022-09-09T16:09:33.434Z,29.48
2022-09-09T16:14:34.518Z,29.73
2022-09-09T16:19:41.729Z,29.61
2022-09-09T16:24:39.260Z,29.34
2022-09-09T16:29:36.061Z,29.19
2022-09-09T16:34:34.055Z,28.94
2022-09-09T16:39:30.862Z,29.02
2022-09-09T16:44:28.276Z,29.23
2022-09-09T16:49:26.169Z,29.21
2022-09-09T16:54:27.461Z,29.39
2022-09-09T17:11:00.640Z,29.46
2022-09-09T17:16:05.922Z,29.55
2022-09-09T17:21:04.879Z,29.46
2022-09-09T17:26:01.630Z,29.52
2022-09-09T17:31:06.648Z,29.46
2022-09-09T17:36:09.493Z,29.09
2022-09-09T17:41:32.687Z,29.17
2022-09-09T17:46:35.662Z,29.23
2022-09-09T17:51:34.150Z,29.40
2022-09-09T17:56:32.068Z,29.44
2022-09-09T18:01:48.792Z,29.42
2022-09-09T18:06:49.437Z,29.40
2022-09-09T18:11:47.077Z,29.12
2022-09-09T18:16:44.212Z,28.94
2022-09-09T18:21:41.782Z,28.81
2022-09-09T18:26:46.376Z,28.70
2022-09-09T18:31:43.218Z,28.59
2022-09-09T18:36:41.924Z,28.78
2022-09-09T18:41:39.608Z,28.94
2022-09-09T18:46:42.274Z,28.99
2022-09-09T18:51:42.242Z,29.04
2022-09-09T18:56:39.370Z,28.96
2022-09-09T19:01:36.096Z,28.94
2022-09-09T19:06:34.243Z,28.83
2022-09-09T19:11:31.036Z,28.68
2022-09-09T19:16:28.984Z,28.42
2022-09-09T19:21:45.841Z,28.40
2022-09-09T19:26:43.491Z,28.47
2022-09-09T19:31:41.539Z,28.40
2022-09-09T19:36:46.733Z,28.41
2022-09-09T19:41:44.149Z,28.36
2022-09-09T19:46:42.308Z,28.24
2022-09-09T19:51:38.950Z,28.23
2022-09-09T19:56:37.119Z,28.28
2022-09-09T20:01:39.918Z,28.08
2022-09-09T20:06:39.940Z,28.04
2022-09-09T20:11:37.899Z,28.19
2022-09-09T20:16:35.533Z,28.26
2022-09-09T20:21:38.802Z,28.15
2022-09-09T20:26:37.893Z,27.88
2022-09-09T20:31:48.965Z,27.56
2022-09-09T20:36:49.770Z,27.29
2022-09-09T20:41:48.203Z,27.22
2022-09-09T20:47:00.317Z,27.26
2022-09-09T20:52:03.543Z,26.93
2022-09-09T20:57:03.928Z,26.94
2022-09-09T21:02:02.931Z,26.98
2022-09-09T21:07:26.892Z,27.09
2022-09-09T21:12:23.831Z,27.05
2022-09-09T21:17:27.949Z,27.21
2022-09-09T21:22:30.592Z,27.31
2022-09-09T21:27:35.348Z,27.60
2022-09-09T21:32:41.947Z,27.39
2022-09-09T21:37:38.884Z,27.25
2022-09-09T21:42:35.694Z,26.70
2022-09-09T21:47:33.084Z,26.92
2022-09-09T21:52:32.329Z,27.11
2022-09-09T21:57:29.053Z,27.13
2022-09-09T22:02:27.576Z,27.24
2022-09-09T22:07:25.153Z,27.11
2022-09-09T22:12:21.965Z,27.10
2022-09-09T22:17:23.944Z,27.12
2022-09-09T22:22:20.781Z,26.80
2022-09-09T22:27:18.349Z,26.40
2022-09-09T22:32:15.271Z,26.50
2022-09-09T22:37:12.433Z,26.40
2022-09-09T22:42:09.172Z,26.57
2022-09-09T22:47:06.653Z,25.69
2022-09-09T22:52:03.349Z,25.40
2022-09-09T22:57:00.124Z,25.26
2022-09-09T23:01:58.190Z,25.20
2022-09-09T23:06:55.603Z,24.98
2022-09-09T23:11:53.388Z,25.13
2022-09-09T23:16:52.011Z,25.09
2022-09-09T23:21:50.249Z,25.18
2022-09-09T23:26:47.766Z,25.30
2022-09-09T23:31:45.355Z,25.02
2022-09-09T23:36:42.287Z,24.86
2022-09-09T23:41:39.704Z,24.76
2022-09-09T23:46:37.173Z,24.58
2022-09-09T23:51:34.861Z,24.65
2022-09-09T23:56:32.324Z,24.70
